createdAt,value
2023-05-16T00:00:53.438Z,101499.38
2023-05-16T00:03:21.458Z,101499.38
2023-05-16T00:05:48.883Z,101497.53
2023-05-16T00:08:16.328Z,101493.56
2023-05-16T00:10:44.066Z,101498.69
2023-05-16T00:13:11.257Z,101504.34
2023-05-16T00:15:38.986Z,101501.84
2023-05-16T00:18:06.510Z,101496.06
2023-05-16T00:20:34.940Z,101498.06
2023-05-16T00:23:02.314Z,101502.03
2023-05-16T00:25:29.594Z,101495.44
2023-05-16T00:27:57.069Z,101499.06
2023-05-16T00:30:24.630Z,101501.06
2023-05-16T00:32:52.480Z,101498.59
2023-05-16T00:35:19.768Z,101503.72
2023-05-16T00:37:47.005Z,101498.91
2023-05-16T00:40:15.512Z,101511.03
2023-05-16T00:42:42.985Z,101505.72
2023-05-16T00:45:10.862Z,101504.41
2023-05-16T00:47:38.122Z,101500.75
2023-05-16T00:50:06.931Z,101496.44
2023-05-16T00:52:34.472Z,101502.75
2023-05-16T00:55:04.210Z,101496.50
2023-05-16T00:57:33.283Z,101502.75
2023-05-16T01:00:00.700Z,101508.72
2023-05-16T01:02:29.708Z,101505.75
2023-05-16T01:04:57.417Z,101498.16
2023-05-16T01:07:24.724Z,101507.41
2023-05-16T01:09:52.306Z,101504.13
2023-05-16T01:12:48.908Z,101505.44
2023-05-16T01:15:24.013Z,101498.66
2023-05-16T01:18:02.385Z,101498.81
2023-05-16T01:20:49.561Z,101500.13
2023-05-16T01:23:59.298Z,101507.59
2023-05-16T01:26:28.630Z,101508.41
2023-05-16T01:28:56.543Z,101504.94
2023-05-16T01:31:24.560Z,101507.25
2023-05-16T01:33:52.261Z,101511.75
2023-05-16T01:36:55.289Z,101506.44
2023-05-16T01:39:25.540Z,101508.41
2023-05-16T01:42:00.072Z,101506.78
2023-05-16T01:44:35.530Z,101515.69
2023-05-16T01:47:10.002Z,101515.03
2023-05-16T01:49:45.724Z,101513.88
2023-05-16T01:52:19.863Z,101511.38
2023-05-16T01:54:49.670Z,101516.34
2023-05-16T01:57:18.240Z,101514.16
2023-05-16T01:59:47.193Z,101526.44
2023-05-16T02:02:14.517Z,101517.63
2023-05-16T02:04:41.785Z,101514.16
2023-05-16T02:07:09.346Z,101519.13
2023-05-16T02:09:38.480Z,101514.13
2023-05-16T02:12:08.057Z,101520.56
2023-05-16T02:14:35.275Z,101527.00
2023-05-16T02:17:02.639Z,101531.16
2023-05-16T02:19:30.064Z,101531.47
2023-05-16T02:21:57.559Z,101535.91
2023-05-16T02:24:24.788Z,101549.13
2023-05-16T02:26:52.351Z,101540.41
2023-05-16T02:29:19.633Z,101542.06
2023-05-16T02:31:47.371Z,101539.03
2023-05-16T02:34:15.120Z,101548.59
2023-05-16T02:36:43.000Z,101550.25
2023-05-16T02:39:10.763Z,101546.47
2023-05-16T02:41:38.097Z,101542.28
2023-05-16T02:44:05.832Z,101537.47
2023-05-16T02:46:37.144Z,101552.22
2023-05-16T02:49:04.694Z,101549.84
2023-05-16T02:51:32.018Z,101554.13
2023-05-16T02:54:01.330Z,101555.13
2023-05-16T02:56:28.720Z,101551.47
2023-05-16T02:58:56.654Z,101558.25
2023-05-16T03:01:24.342Z,101558.09
2023-05-16T03:03:51.879Z,101561.38
2023-05-16T03:06:19.322Z,101557.91
2023-05-16T03:08:46.695Z,101556.09
2023-05-16T03:11:15.167Z,101563.66
2023-05-16T03:13:42.748Z,101571.53
2023-05-16T03:16:10.093Z,101565.94
2023-05-16T03:18:37.407Z,101567.91
2023-05-16T03:21:05.764Z,101566.38
2023-05-16T03:23:33.220Z,101571.44
2023-05-16T03:26:00.686Z,101564.13
2023-05-16T03:28:28.044Z,101557.50
2023-05-16T03:30:55.593Z,101557.19
2023-05-16T03:33:23.936Z,101566.84
2023-05-16T03:35:52.447Z,101565.78
2023-05-16T03:38:19.682Z,101564.44
2023-05-16T03:40:48.718Z,101562.72
2023-05-16T03:43:16.020Z,101561.38
2023-05-16T03:45:43.657Z,101557.09
2023-05-16T03:48:11.301Z,101569.56
2023-05-16T03:50:40.327Z,101562.41
2023-05-16T03:53:09.361Z,101564.03
2023-05-16T03:55:36.747Z,101567.59
2023-05-16T03:58:03.973Z,101571.94
2023-05-16T04:00:31.272Z,101579.59
2023-05-16T04:02:58.631Z,101566.94
2023-05-16T04:05:26.299Z,101562.59
2023-05-16T04:07:53.886Z,101570.06
2023-05-16T04:10:21.150Z,101558.41
2023-05-16T04:12:48.419Z,101565.50
2023-05-16T04:15:15.722Z,101561.41
2023-05-16T04:17:43.222Z,101554.63
2023-05-16T04:20:11.118Z,101556.88
2023-05-16T04:22:38.223Z,101556.03
2023-05-16T04:25:05.460Z,101549.97
2023-05-16T04:27:32.551Z,101560.16
2023-05-16T04:30:00.242Z,101560.44
2023-05-16T04:32:29.252Z,101560.72
2023-05-16T04:34:56.630Z,101552.66
2023-05-16T04:37:23.897Z,101560.63
2023-05-16T04:39:51.783Z,101554.09
2023-05-16T04:42:18.949Z,101560.44
2023-05-16T04:44:48.072Z,101557.03
2023-05-16T04:47:15.510Z,101552.84
2023-05-16T04:49:42.865Z,101552.41
2023-05-16T04:52:10.246Z,101560.31
2023-05-16T04:54:39.575Z,101560.84
2023-05-16T04:57:07.506Z,101564.31
2023-05-16T04:59:38.880Z,101557.94
2023-05-16T05:02:07.984Z,101560.84
2023-05-16T05:04:35.800Z,101557.47
2023-05-16T05:07:03.492Z,101552.00
2023-05-16T05:09:35.225Z,101548.97
2023-05-16T05:12:18.836Z,101546.81
2023-05-16T05:14:48.189Z,101554.28
2023-05-16T05:17:16.967Z,101552.69
2023-05-16T05:19:44.747Z,101545.78
2023-05-16T05:22:13.806Z,101561.69
2023-05-16T05:24:41.465Z,101556.94
2023-05-16T05:27:08.957Z,101550.16
2023-05-16T05:29:36.645Z,101549.59
2023-05-16T05:32:04.602Z,101546.09
2023-05-16T05:34:32.311Z,101550.22
2023-05-16T05:37:00.324Z,101549.59
2023-05-16T05:39:27.942Z,101560.88
2023-05-16T05:41:59.746Z,101547.75
2023-05-16T05:44:28.406Z,101541.38
2023-05-16T05:46:59.847Z,101557.44
2023-05-16T05:49:28.157Z,101543.34
2023-05-16T05:51:56.436Z,101545.00
2023-05-16T05:54:25.410Z,101555.59
2023-05-16T05:56:53.021Z,101547.78
2023-05-16T05:59:20.775Z,101553.34
2023-05-16T06:01:52.833Z,101548.25
2023-05-16T06:04:24.622Z,101558.78
2023-05-16T06:06:52.665Z,101553.69
2023-05-16T06:09:21.930Z,101552.91
2023-05-16T06:11:50.631Z,101542.28
2023-05-16T06:14:18.267Z,101542.31
2023-05-16T06:16:47.689Z,101545.81
2023-05-16T06:19:16.777Z,101555.31
2023-05-16T06:21:44.491Z,101564.97
2023-05-16T06:24:12.911Z,101564.97
2023-05-16T06:26:40.482Z,101564.13
2023-05-16T06:29:09.429Z,101554.69
2023-05-16T06:31:38.413Z,101547.13
2023-05-16T06:34:08.221Z,101552.72
2023-05-16T06:36:37.233Z,101551.94
2023-05-16T06:39:08.307Z,101568.78
2023-05-16T06:41:36.149Z,101550.25
2023-05-16T06:44:05.862Z,101550.09
2023-05-16T06:46:34.868Z,101544.75
2023-05-16T06:49:03.747Z,101543.97
2023-05-16T06:51:31.953Z,101552.88
2023-05-16T06:54:04.076Z,101543.44
2023-05-16T06:56:32.057Z,101537.31
2023-05-16T06:59:02.168Z,101555.59
2023-05-16T07:01:30.040Z,101555.59
2023-05-16T07:04:02.667Z,101547.97
2023-05-16T07:06:33.029Z,101543.09
2023-05-16T07:09:01.606Z,101531.97
2023-05-16T07:11:29.252Z,101540.63
2023-05-16T07:13:56.904Z,101537.31
2023-05-16T07:16:24.584Z,101524.19
2023-05-16T07:18:52.764Z,101526.66
2023-05-16T07:21:20.229Z,101532.84
2023-05-16T07:23:47.959Z,101524.38
2023-05-16T07:26:15.660Z,101515.56
2023-05-16T07:28:44.107Z,101515.75
2023-05-16T07:31:12.269Z,101517.81
2023-05-16T07:33:41.318Z,101515.16
2023-05-16T07:36:16.773Z,101505.69
2023-05-16T07:38:49.922Z,101517.81
2023-05-16T07:41:22.122Z,101510.38
2023-05-16T07:43:51.360Z,101515.13
2023-05-16T07:46:35.713Z,101509.75
2023-05-16T07:49:05.126Z,101520.25
2023-05-16T07:51:36.658Z,101496.66
2023-05-16T07:54:04.386Z,101504.41
2023-05-16T07:56:32.028Z,101492.31
2023-05-16T07:59:09.878Z,101501.38
2023-05-16T08:01:41.745Z,101486.78
2023-05-16T08:04:10.246Z,101497.00
2023-05-16T08:06:38.003Z,101505.44
2023-05-16T08:09:07.320Z,101499.06
2023-05-16T08:11:34.823Z,101491.63
2023-05-16T08:14:02.429Z,101494.25
2023-05-16T08:16:30.085Z,101495.47
2023-05-16T08:18:57.965Z,101510.50
2023-05-16T08:21:26.533Z,101510.53
2023-05-16T08:23:54.944Z,101483.38
2023-05-16T08:26:39.675Z,101489.34
2023-05-16T08:29:34.791Z,101494.63
2023-05-16T08:32:03.716Z,101488.72
2023-05-16T08:34:34.363Z,101471.91
2023-05-16T08:37:02.064Z,101479.31
2023-05-16T08:39:31.466Z,101480.53
2023-05-16T08:42:00.434Z,101480.16
2023-05-16T08:44:29.413Z,101479.75
2023-05-16T08:47:11.324Z,101486.53
2023-05-16T08:49:41.864Z,101483.84
2023-05-16T08:52:11.192Z,101490.81
2023-05-16T08:54:40.390Z,101487.91
2023-05-16T08:57:10.623Z,101494.69
2023-05-16T08:59:39.938Z,101480.09
2023-05-16T09:02:09.912Z,101475.31
2023-05-16T09:04:41.707Z,101478.34
2023-05-16T09:07:09.179Z,101466.84
2023-05-16T09:09:38.120Z,101466.38
2023-05-16T09:12:05.663Z,101465.56
2023-05-16T09:14:33.312Z,101463.50
2023-05-16T09:17:28.567Z,101465.16
2023-05-16T09:20:18.847Z,101449.06
2023-05-16T09:22:54.862Z,101450.84
2023-05-16T09:28:03.139Z,101462.09
2023-05-16T09:30:40.107Z,101453.47
2023-05-16T09:33:08.468Z,101457.28
2023-05-16T09:35:45.355Z,101461.84
2023-05-16T09:38:18.453Z,101456.31
2023-05-16T09:40:47.522Z,101457.06
2023-05-16T09:43:17.647Z,101451.28
2023-05-16T09:45:49.598Z,101457.56
2023-05-16T09:48:18.986Z,101443.75
2023-05-16T09:50:53.644Z,101448.69
2023-05-16T09:53:32.826Z,101441.13
2023-05-16T09:56:14.372Z,101439.78
2023-05-16T09:58:43.927Z,101432.50
2023-05-16T10:01:12.007Z,101420.97
2023-05-16T10:03:42.844Z,101429.38
2023-05-16T10:06:29.548Z,101425.28
2023-05-16T10:08:57.219Z,101422.97
2023-05-16T10:11:30.756Z,101429.94
2023-05-16T10:14:01.907Z,101428.44
2023-05-16T10:16:29.759Z,101429.66
2023-05-16T10:18:57.853Z,101424.47
2023-05-16T10:21:28.860Z,101423.34
2023-05-16T10:23:59.037Z,101435.03
2023-05-16T10:26:28.128Z,101425.72
2023-05-16T10:28:56.726Z,101428.44
2023-05-16T10:31:25.143Z,101425.72
2023-05-16T10:33:53.657Z,101431.28
2023-05-16T10:36:25.434Z,101426.88
2023-05-16T10:38:54.357Z,101421.25
2023-05-16T10:41:22.363Z,101429.88
2023-05-16T10:44:03.232Z,101426.97
2023-05-16T10:46:32.475Z,101428.00
2023-05-16T10:49:20.173Z,101422.91
2023-05-16T10:52:03.491Z,101431.91
2023-05-16T10:54:41.030Z,101429.50
2023-05-16T10:57:23.043Z,101431.91
2023-05-16T10:59:56.617Z,101439.53
2023-05-16T11:02:33.193Z,101442.63
2023-05-16T11:05:11.974Z,101435.88
2023-05-16T11:08:04.657Z,101429.97
2023-05-16T11:10:32.929Z,101432.50
2023-05-16T11:13:08.381Z,101437.47
2023-05-16T11:15:36.148Z,101417.72
2023-05-16T11:18:07.409Z,101436.69
2023-05-16T11:20:37.802Z,101432.78
2023-05-16T11:23:17.648Z,101423.56
2023-05-16T11:25:59.107Z,101422.47
2023-05-16T11:28:28.434Z,101411.75
2023-05-16T11:30:58.827Z,101421.78
2023-05-16T11:33:27.993Z,101423.94
2023-05-16T11:38:44.174Z,101433.41
2023-05-16T11:41:12.098Z,101422.66
2023-05-16T11:43:45.381Z,101412.84
2023-05-16T11:46:15.323Z,101405.25
2023-05-16T11:48:44.083Z,101397.25
2023-05-16T11:51:11.592Z,101395.59
2023-05-16T11:53:38.913Z,101399.22
2023-05-16T11:56:08.578Z,101393.31
2023-05-16T11:58:37.194Z,101395.72
2023-05-16T12:01:05.882Z,101397.91
2023-05-16T12:03:35.919Z,101391.91
2023-05-16T12:06:08.358Z,101396.31
2023-05-16T12:08:36.154Z,101396.78
2023-05-16T12:11:03.877Z,101400.97
2023-05-16T12:13:31.629Z,101407.16
2023-05-16T12:16:01.540Z,101406.84
2023-05-16T12:18:29.305Z,101406.84
2023-05-16T12:20:56.889Z,101398.75
2023-05-16T12:23:27.041Z,101401.38
2023-05-16T12:25:57.348Z,101406.59
2023-05-16T12:28:24.705Z,101400.31
2023-05-16T12:30:52.089Z,101402.28
2023-05-16T12:33:19.570Z,101406.88
2023-05-16T12:35:48.269Z,101417.53
2023-05-16T12:38:17.734Z,101420.97
2023-05-16T12:40:45.752Z,101422.19
2023-05-16T12:43:17.723Z,101426.84
2023-05-16T12:45:55.818Z,101434.47
2023-05-16T12:48:24.552Z,101452.66
2023-05-16T12:50:52.049Z,101444.28
2023-05-16T12:53:19.748Z,101441.19
2023-05-16T12:55:50.204Z,101438.94
2023-05-16T12:58:17.977Z,101455.44
2023-05-16T13:00:45.511Z,101471.84
2023-05-16T13:03:13.320Z,101459.00
2023-05-16T13:05:41.443Z,101465.00
2023-05-16T13:08:08.844Z,101470.34
2023-05-16T13:10:36.433Z,101456.81
2023-05-16T13:13:04.845Z,101463.72
2023-05-16T13:15:32.518Z,101467.31
2023-05-16T13:17:59.892Z,101469.72
2023-05-16T13:20:27.288Z,101468.63
2023-05-16T13:22:54.603Z,101478.16
2023-05-16T13:25:21.920Z,101472.34
2023-05-16T13:27:49.712Z,101470.63
2023-05-16T13:30:16.956Z,101483.25
2023-05-16T13:32:47.395Z,101471.69
2023-05-16T13:35:14.647Z,101472.84
2023-05-16T13:37:41.941Z,101472.53
2023-05-16T13:40:10.742Z,101472.28
2023-05-16T13:42:38.933Z,101483.31
2023-05-16T13:45:07.272Z,101485.53
2023-05-16T13:47:34.960Z,101492.50
2023-05-16T13:50:09.482Z,101486.63
2023-05-16T13:52:38.442Z,101490.03
2023-05-16T13:55:06.481Z,101485.41
2023-05-16T13:57:33.907Z,101491.56
2023-05-16T14:00:24.873Z,101489.34
2023-05-16T14:02:48.751Z,101484.94
2023-05-16T14:05:16.173Z,101489.66
2023-05-16T14:07:45.359Z,101490.94
2023-05-16T14:10:14.126Z,101479.69
2023-05-16T14:12:41.548Z,101483.25
2023-05-16T14:15:09.398Z,101486.22
2023-05-16T14:17:36.789Z,101475.19
2023-05-16T14:20:09.703Z,101481.72
2023-05-16T14:22:37.816Z,101458.47
2023-05-16T14:25:06.567Z,101468.25
2023-05-16T14:27:34.744Z,101476.06
2023-05-16T14:30:02.287Z,101477.41
2023-05-16T14:32:31.667Z,101473.75
2023-05-16T14:34:59.047Z,101469.88
2023-05-16T14:37:26.416Z,101458.69
2023-05-16T14:39:54.807Z,101457.28
2023-05-16T14:42:22.172Z,101451.63
2023-05-16T14:44:49.986Z,101455.59
2023-05-16T14:47:17.387Z,101446.03
2023-05-16T14:49:44.729Z,101438.03
2023-05-16T14:52:11.925Z,101439.50
2023-05-16T14:54:39.527Z,101447.38
2023-05-16T14:57:07.647Z,101447.41
2023-05-16T14:59:35.209Z,101453.88
2023-05-16T15:02:02.843Z,101460.09
2023-05-16T15:04:30.311Z,101452.09
2023-05-16T15:06:57.647Z,101457.66
2023-05-16T15:09:25.093Z,101461.75
2023-05-16T15:11:52.626Z,101463.59
2023-05-16T15:14:19.882Z,101463.41
2023-05-16T15:16:48.270Z,101453.97
2023-05-16T15:19:15.922Z,101456.06
2023-05-16T15:21:43.331Z,101463.88
2023-05-16T15:24:10.883Z,101454.75
2023-05-16T15:26:39.589Z,101456.59
2023-05-16T15:29:06.916Z,101467.88
2023-05-16T15:31:34.306Z,101460.09
2023-05-16T15:34:01.612Z,101456.72
2023-05-16T15:36:29.338Z,101449.31
2023-05-16T15:38:56.567Z,101454.25
2023-05-16T15:41:37.240Z,101454.59
2023-05-16T15:44:11.166Z,101457.63
2023-05-16T15:46:39.109Z,101450.41
2023-05-16T15:49:06.676Z,101463.16
2023-05-16T15:51:33.943Z,101453.72
2023-05-16T15:54:02.492Z,101465.63
2023-05-16T15:56:29.838Z,101463.97
2023-05-16T15:58:57.341Z,101469.09
2023-05-16T16:01:24.681Z,101470.94
2023-05-16T16:03:52.222Z,101468.09
2023-05-16T16:06:19.853Z,101463.97
2023-05-16T16:08:47.270Z,101463.78
2023-05-16T16:11:14.547Z,101467.72
2023-05-16T16:13:42.071Z,101465.03
2023-05-16T16:16:09.382Z,101463.59
2023-05-16T16:18:36.713Z,101459.06
2023-05-16T16:21:04.291Z,101463.72
2023-05-16T16:23:32.211Z,101462.66
2023-05-16T16:25:59.623Z,101464.66
2023-05-16T16:28:27.381Z,101462.94
2023-05-16T16:30:54.846Z,101462.75
2023-05-16T16:33:22.165Z,101470.31
2023-05-16T16:35:49.619Z,101477.22
2023-05-16T16:38:17.785Z,101484.59
2023-05-16T16:40:45.183Z,101487.44
2023-05-16T16:43:12.544Z,101490.16
2023-05-16T16:45:39.877Z,101489.28
2023-05-16T16:48:09.456Z,101498.41
2023-05-16T16:50:36.891Z,101496.22
2023-05-16T16:53:04.848Z,101495.13
2023-05-16T16:55:32.372Z,101491.63
2023-05-16T16:57:59.714Z,101490.72
2023-05-16T17:00:27.755Z,101490.09
2023-05-16T17:02:55.429Z,101502.56
2023-05-16T17:05:22.819Z,101506.06
2023-05-16T17:07:50.754Z,101510.06
2023-05-16T17:10:18.801Z,101508.06
2023-05-16T17:12:49.578Z,101512.72
2023-05-16T17:15:20.211Z,101517.88
2023-05-16T17:17:49.556Z,101510.47
2023-05-16T17:20:16.987Z,101515.41
2023-05-16T17:22:45.083Z,101516.06
2023-05-16T17:25:12.810Z,101518.31
2023-05-16T17:27:41.149Z,101523.44
2023-05-16T17:30:10.898Z,101524.56
2023-05-16T17:32:39.542Z,101521.25
2023-05-16T17:35:07.797Z,101525.56
2023-05-16T17:37:35.199Z,101523.28
2023-05-16T17:40:02.605Z,101521.91
2023-05-16T17:42:30.884Z,101528.22
2023-05-16T17:44:58.251Z,101524.28
2023-05-16T17:47:26.071Z,101525.94
2023-05-16T17:49:53.258Z,101530.69
2023-05-16T17:52:22.464Z,101527.22
2023-05-16T17:54:49.854Z,101519.63
2023-05-16T17:57:17.170Z,101523.63
2023-05-16T17:59:44.646Z,101523.28
2023-05-16T18:02:15.538Z,101523.72
2023-05-16T18:04:43.420Z,101527.84
2023-05-16T18:07:10.926Z,101530.19
2023-05-16T18:09:38.244Z,101531.63
2023-05-16T18:12:06.053Z,101533.28
2023-05-16T18:14:33.454Z,101532.84
2023-05-16T18:17:00.881Z,101537.78
2023-05-16T18:19:28.310Z,101540.44
2023-05-16T18:21:55.811Z,101535.66
2023-05-16T18:24:23.087Z,101547.47
2023-05-16T18:26:51.125Z,101539.13
2023-05-16T18:29:18.537Z,101534.00
2023-05-16T18:31:46.055Z,101539.84
2023-05-16T18:34:13.424Z,101542.50
2023-05-16T18:36:40.939Z,101546.03
2023-05-16T18:39:10.340Z,101548.06
2023-05-16T18:41:37.749Z,101540.63
2023-05-16T18:44:05.148Z,101548.06
2023-05-16T18:46:35.558Z,101548.06
2023-05-16T18:49:02.940Z,101550.22
2023-05-16T18:51:30.427Z,101536.28
2023-05-16T18:53:57.809Z,101542.81
2023-05-16T18:56:25.086Z,101549.97
2023-05-16T18:58:52.410Z,101534.50
2023-05-16T19:01:22.707Z,101533.28
2023-05-16T19:03:50.346Z,101529.38
2023-05-16T19:06:17.846Z,101535.50
2023-05-16T19:08:48.008Z,101533.16
2023-05-16T19:11:17.805Z,101537.63
2023-05-16T19:13:46.173Z,101538.63
2023-05-16T19:16:16.478Z,101531.56
2023-05-16T19:18:43.947Z,101535.88
2023-05-16T19:21:13.716Z,101542.03
2023-05-16T19:23:41.265Z,101525.63
2023-05-16T19:26:08.581Z,101537.06
2023-05-16T19:28:35.855Z,101530.47
2023-05-16T19:31:03.257Z,101528.19
2023-05-16T19:33:30.462Z,101531.84
2023-05-16T19:35:58.907Z,101523.88
2023-05-16T19:38:27.010Z,101525.88
2023-05-16T19:40:54.844Z,101517.91
2023-05-16T19:43:21.973Z,101526.25
2023-05-16T19:45:49.806Z,101525.78
2023-05-16T19:48:17.038Z,101523.31
2023-05-16T19:50:44.800Z,101523.31
2023-05-16T19:53:12.163Z,101518.00
2023-05-16T19:55:39.676Z,101527.63
2023-05-16T19:58:07.263Z,101517.00
2023-05-16T20:00:34.589Z,101512.50
2023-05-16T20:03:02.022Z,101519.47
2023-05-16T20:05:29.764Z,101511.97
2023-05-16T20:07:57.516Z,101511.97
2023-05-16T20:10:25.100Z,101511.97
2023-05-16T20:12:52.358Z,101504.63
2023-05-16T20:15:19.656Z,101506.66
2023-05-16T20:17:47.022Z,101514.00
2023-05-16T20:20:14.365Z,101499.41
2023-05-16T20:22:42.096Z,101501.69
2023-05-16T20:25:10.668Z,101509.50
2023-05-16T20:27:38.661Z,101510.78
2023-05-16T20:30:07.122Z,101507.94
2023-05-16T20:32:34.853Z,101508.31
2023-05-16T20:35:04.586Z,101502.34
2023-05-16T20:37:33.048Z,101501.34
2023-05-16T20:40:00.443Z,101496.38
2023-05-16T20:42:27.883Z,101485.75
2023-05-16T20:44:55.145Z,101486.13
2023-05-16T20:47:22.419Z,101493.63
2023-05-16T20:49:49.809Z,101497.03
2023-05-16T20:52:17.192Z,101496.03
2023-05-16T20:54:44.480Z,101495.66
2023-05-16T20:57:11.870Z,101491.72
2023-05-16T20:59:39.219Z,101497.19
2023-05-16T21:02:06.552Z,101499.31
2023-05-16T21:04:33.940Z,101504.91
2023-05-16T21:07:01.273Z,101499.03
2023-05-16T21:09:28.641Z,101491.25
2023-05-16T21:11:56.239Z,101490.88
2023-05-16T21:14:23.521Z,101487.88
2023-05-16T21:16:52.432Z,101491.78
2023-05-16T21:19:19.924Z,101479.91
2023-05-16T21:21:47.296Z,101482.91
2023-05-16T21:24:14.696Z,101477.50
2023-05-16T21:26:42.075Z,101480.09
2023-05-16T21:29:09.356Z,101470.19
2023-05-16T21:31:36.742Z,101466.88
2023-05-16T21:34:04.193Z,101461.94
2023-05-16T21:36:31.666Z,101471.28
2023-05-16T21:38:58.985Z,101462.69
2023-05-16T21:41:27.061Z,101450.59
2023-05-16T21:43:54.511Z,101459.75
2023-05-16T21:46:21.924Z,101454.81
2023-05-16T21:48:49.350Z,101449.22
2023-05-16T21:51:16.905Z,101440.34
2023-05-16T21:53:46.950Z,101439.44
2023-05-16T21:56:14.459Z,101433.16
2023-05-16T21:58:42.766Z,101434.19
2023-05-16T22:01:10.505Z,101435.34
2023-05-16T22:03:37.876Z,101435.53
2023-05-16T22:06:05.558Z,101429.22
2023-05-16T22:08:32.938Z,101432.22
2023-05-16T22:11:00.516Z,101430.31
2023-05-16T22:13:27.810Z,101427.28
2023-05-16T22:16:03.910Z,101428.94
2023-05-16T22:18:33.376Z,101433.44
2023-05-16T22:21:01.915Z,101431.88
2023-05-16T22:23:29.312Z,101433.03
2023-05-16T22:25:56.721Z,101433.88
2023-05-16T22:28:24.173Z,101435.91
2023-05-16T22:30:51.601Z,101426.47
2023-05-16T22:33:19.067Z,101438.34
2023-05-16T22:35:46.594Z,101430.31
2023-05-16T22:38:13.904Z,101434.94
2023-05-16T22:40:41.580Z,101441.63
2023-05-16T22:43:08.978Z,101435.97
2023-05-16T22:45:36.377Z,101444.94
2023-05-16T22:48:04.127Z,101445.84
2023-05-16T22:50:31.434Z,101445.00
2023-05-16T22:52:58.819Z,101453.53
2023-05-16T22:55:26.551Z,101457.22
2023-05-16T22:57:57.369Z,101454.13
2023-05-16T23:00:24.790Z,101457.13
2023-05-16T23:02:52.901Z,101453.53
2023-05-16T23:05:20.710Z,101448.88
2023-05-16T23:07:50.532Z,101434.78
2023-05-16T23:10:17.930Z,101442.81
2023-05-16T23:12:45.268Z,101442.00
2023-05-16T23:15:13.716Z,101448.59
2023-05-16T23:17:41.219Z,101455.91
2023-05-16T23:20:09.058Z,101440.34
2023-05-16T23:22:36.363Z,101443.28
2023-05-16T23:25:04.146Z,101454.63
2023-05-16T23:27:32.073Z,101446.66
2023-05-16T23:29:59.281Z,101456.41
2023-05-16T23:32:26.536Z,101448.63
2023-05-16T23:34:53.856Z,101454.63
2023-05-16T23:37:21.345Z,101457.97
2023-05-16T23:39:48.636Z,101467.94
2023-05-16T23:42:16.018Z,101467.09
2023-05-16T23:44:43.412Z,101476.41
2023-05-16T23:47:11.095Z,101467.03
2023-05-16T23:49:38.398Z,101481.88
2023-05-16T23:52:06.400Z,101466.69
2023-05-16T23:54:34.231Z,101475.81
2023-05-16T23:57:01.648Z,101477.81
2023-05-16T23:59:29.064Z,101473.66
